Wednesday, October 18, 2017, 3:43 AM EDT
Back to Local

KBLM, Belmar-farmingdale

Location: Farmingdale, NJ, United States Lat: 40.183
Local Time: 3:43 AM EDT ( 7:43 GMT) Lon: -74.133
Time Zone: US/Eastern Elev: 157 ft

Show me the last for .
Show Decoded

2017-10-18 02:56 METAR KBLM 180656Z AUTO 22006KT 10SM CLR 07/03 A3031 RMK AO2 SLP271 T00670033 =
2017-10-18 01:56 METAR KBLM 180556Z AUTO 24004KT 10SM CLR 06/03 A3032 RMK AO2 SLP272 T00610033
                 10089 20056 56002 =
2017-10-18 00:56 METAR KBLM 180456Z AUTO 23004KT 10SM CLR 06/03 A3032 RMK AO2 SLP272 T00560033
                 401500022 =
2017-10-17 23:56 METAR KBLM 180356Z AUTO 24004KT 10SM CLR 06/04 A3032 RMK AO2 SLP272 T00610039 =
2017-10-17 22:56 METAR KBLM 180256Z AUTO 22005KT 10SM CLR 08/04 A3032 RMK AO2 SLP274 T00780044 =
2017-10-17 21:56 METAR KBLM 180156Z AUTO 20006KT 10SM CLR 08/04 A3032 RMK AO2 SLP273 T00830044 =
2017-10-17 20:56 METAR KBLM 180056Z AUTO 20006KT 10SM CLR 08/04 A3031 RMK AO2 SLP270 T00830044 =
2017-10-17 19:56 METAR KBLM 172356Z AUTO 10SM CLR 09/04 RMK AO2 SLPNO 6//// T00890044 10150 20089
                 $ =
2017-10-17 18:56 METAR KBLM 172256Z AUTO 00000KT 10SM CLR 10/05 A3030 RMK AO2 SLP265 T01000050 =
2017-10-17 17:56 METAR KBLM 172156Z AUTO 15005KT 10SM CLR 12/04 A3029 RMK AO2 SLP261 T01170044 =
2017-10-17 16:56 METAR KBLM 172056Z AUTO 15006KT 10SM CLR 13/04 A3028 RMK AO2 SLP260 T01280039
                 56008 =
2017-10-17 15:56 METAR KBLM 171956Z AUTO 14004KT 10SM CLR 14/00 A3029 RMK AO2 SLP263 T01440000 =
2017-10-17 14:56 METAR KBLM 171856Z AUTO 00000KT 10SM CLR 14/01 A3030 RMK AO2 SLP265 T01390006 =
2017-10-17 13:56 METAR KBLM 171756Z AUTO 33006KT 10SM CLR 14/00 A3031 RMK AO2 SLP269 6////
                 T01440000 10144 20039 58015 =
2017-10-17 12:56 METAR KBLM 171656Z AUTO 31007KT 10SM CLR 13/01 A3032 RMK AO2 SLP273 T01280006 =
2017-10-17 11:56 METAR KBLM 171556Z AUTO VRB03KT 10SM CLR 12/01 A3035 RMK AO2 SLP282 T01170011 =
2017-10-17 10:56 METAR KBLM 171456Z AUTO 35003KT 10SM CLR 11/02 A3035 RMK AO2 SLP283 6////
                 T01060017 50004 =
2017-10-17 09:56 METAR KBLM 171356Z AUTO 35007KT 10SM CLR 09/03 A3036 RMK AO2 SLP286 T00940028 =
2017-10-17 08:56 METAR KBLM 171256Z AUTO 33006KT 10SM CLR 07/02 A3036 RMK AO2 SLP285 T00720022 =
2017-10-17 07:56 METAR KBLM 171156Z AUTO 31005KT 10SM CLR 04/01 A3034 RMK AO2 SLP279 60001 7////
                 T00390011 10056 20022 51022 =
2017-10-17 06:56 METAR KBLM 171056Z AUTO 30005KT 10SM CLR 03/01 A3031 RMK AO2 SLP271 T00280006 =
2017-10-17 05:56 METAR KBLM 170956Z AUTO 31006KT 10SM CLR 03/01 A3030 RMK AO2 SLP264 T00280006 =
2017-10-17 04:56 METAR KBLM 170856Z AUTO 30005KT 10SM CLR 03/00 A3027 RMK AO2 SLP256 60001
                 T00330000 53008 =
2017-10-17 03:56 METAR KBLM 170756Z AUTO 31007KT 10SM CLR 04/00 A3026 RMK AO2 SLP251 T00390000 =

Support USWX by starting your Amazon purchase here.